Aérodrome :
LOGIN :

S'inscrire | Disclaimer

   EN    FR    IT 

 










Légende :    VFR   VFR Marginal   IFR   IFR Intensif   IFR Très Intensif
Visi : 
Plafond : 
>= 8 km
>= 3000ft
5 à 8 km
1000 à 3000 ft
1500m à 5 km
500 à 1000 ft
800 à 1500m
200 à 500 ft
< 800m
< 200 ft
Symboles :   Orages  Brouillard  Fortes neiges  Fortes précipitations  Vent > 20 kt
SIGMETs :   Divers  Orages  Givrage  Turbulence  Onde Orograph.  Cendres Volcan.






- Altitude de l'aérodrome : 12 ft
- Code IATA : NCE


LFMN - Nice

DERNIER METAR :
  • 161100Z 09012KT 9999 FEW060 SCT070 14/04 Q1016 NOSIG

METARs EXPIRÉS :
  • 161030Z 08013KT 9999 FEW060 SCT083 13/04 Q1016 NOSIG
  • 161000Z 08015KT 9999 FEW060 13/05 Q1017 NOSIG
  • 160930Z 08014KT 9999 FEW060 13/05 Q1017 NOSIG
  • 160900Z 08015KT 9999 FEW050 13/06 Q1017 NOSIG
  • 160830Z 10009KT 080V160 9999 FEW050 13/05 Q1017 NOSIG

TAF AMD TAF LFMN
Valide du 16 à 09h jusqu'au 17 à 15h UTC


160826Z 1609/1715 11018KT 9999 SCT050
PROB30
TEMPO 1609/1612 SHRA SCT040TCU
BECMG 1617/1620 34010KT CAVOK
BECMG 1709/1712 12012KT
ATIS : +33 4 93 17 21 16



MET'MAP, la Météo Aéronautique d'un coup d'oeil ! - Copyright ORBIFLY Décembre 2007 - Disclaimer

ORBIFLY MET'MAP TEAM :

Programmation & Développement : Alexandra Zaïnal
Sur une idée originale de : Baudouin d'Aumeries
Assistance à la programmation : Marc-Olivier Méhu
Soutien technique & logistique : Manuel Goepfert

Contact : metmap@orbifly.com




SOURCES & CREDITS :

   NOAA